Time;durP1;ratioP1;P1;durP2;ratioP2;P2;SDS_P1;SDS_P2;PMS_P1;PMS_P2;Temp;Humidity;BMP_temperature;BMP_pressure;BME280_temperature;BME280_humidity;BME280_pressure;Samples;Min_cycle;Max_cycle;Signal;HPM_P1;HPM_P2
2022/10/23 00:01:29;;;;;;;139.95;67.57;;;9.80;99.90;;;;;;5116322;28;20016;-72
2022/10/23 00:04:04;;;;;;;137.43;64.68;;;9.80;99.90;;;;;;5115258;28;20031;-75
2022/10/23 00:06:32;;;;;;;130.90;65.68;;;9.80;99.90;;;;;;5115140;28;20020;-72
2022/10/23 00:08:57;;;;;;;128.20;66.68;;;9.70;99.90;;;;;;5115084;28;20028;-72
2022/10/23 00:11:25;;;;;;;126.78;63.22;;;9.80;99.90;;;;;;5116339;28;20028;-76
2022/10/23 00:13:53;;;;;;;125.18;64.75;;;9.80;99.90;;;;;;5128224;27;20069;-76
2022/10/23 00:16:19;;;;;;;131.13;66.82;;;9.80;99.90;;;;;;5136797;27;20357;-76
2022/10/23 00:18:44;;;;;;;130.45;63.65;;;9.80;99.90;;;;;;5136747;27;20023;-74
2022/10/23 00:21:11;;;;;;;121.07;62.22;;;9.80;99.90;;;;;;5136775;27;20019;-75
2022/10/23 00:23:37;;;;;;;116.65;60.00;;;9.80;99.90;;;;;;5115315;27;20050;-73
2022/10/23 00:26:03;;;;;;;116.60;64.22;;;9.80;99.90;;;;;;5116197;28;20496;-75
2022/10/23 00:28:29;;;;;;;125.43;62.97;;;9.80;99.90;;;;;;5115957;28;20027;-75
2022/10/23 00:30:55;;;;;;;132.70;66.28;;;9.80;99.90;;;;;;5114676;28;20028;-75
2022/10/23 00:33:21;;;;;;;136.80;67.82;;;9.80;99.90;;;;;;5115630;28;20019;-72
2022/10/23 00:35:46;;;;;;;124.97;63.78;;;9.80;99.90;;;;;;5115721;28;20030;-76
2022/10/23 00:38:12;;;;;;;111.78;60.22;;;9.80;99.90;;;;;;5119143;27;20056;-76
2022/10/23 00:40:40;;;;;;;114.55;61.58;;;9.80;99.90;;;;;;5115357;28;20024;-77
2022/10/23 00:43:20;;;;;;;123.70;61.28;;;9.70;99.90;;;;;;5115465;28;20020;-76
2022/10/23 00:45:45;;;;;;;116.32;61.95;;;9.70;99.90;;;;;;5115337;28;20435;-76
2022/10/23 00:48:11;;;;;;;114.10;58.85;;;9.70;99.90;;;;;;5115246;28;20072;-76
2022/10/23 00:50:37;;;;;;;116.43;63.30;;;9.80;99.90;;;;;;5115047;28;20039;-76
2022/10/23 00:53:03;;;;;;;112.00;61.10;;;9.80;99.90;;;;;;5115130;28;20091;-76
2022/10/23 00:55:31;;;;;;;103.32;59.60;;;9.80;99.90;;;;;;5115051;28;20469;-76
2022/10/23 00:57:56;;;;;;;115.15;60.10;;;9.80;99.90;;;;;;5116800;27;20092;-76
2022/10/23 01:00:25;;;;;;;120.78;62.47;;;9.80;99.90;;;;;;5114317;28;20047;-76
2022/10/23 01:02:52;;;;;;;106.95;57.58;;;9.80;99.90;;;;;;5111839;28;20024;-72
2022/10/23 01:05:21;;;;;;;106.30;58.95;;;9.80;99.90;;;;;;5114258;28;20028;-72
2022/10/23 01:08:00;;;;;;;108.80;60.10;;;9.80;99.90;;;;;;5114546;28;20054;-75
2022/10/23 01:10:32;;;;;;;101.97;57.95;;;9.80;99.90;;;;;;5114010;28;20115;-72
2022/10/23 01:13:11;;;;;;;103.03;57.43;;;9.80;99.90;;;;;;5113912;27;20027;-71
2022/10/23 01:15:46;;;;;;;116.32;60.15;;;9.80;99.90;;;;;;5111172;28;20426;-76
2022/10/23 01:18:11;;;;;;;105.45;57.28;;;9.80;99.90;;;;;;5113935;28;20026;-76
2022/10/23 01:20:43;;;;;;;119.70;59.72;;;9.80;99.90;;;;;;5113867;28;20020;-76
2022/10/23 01:23:24;;;;;;;99.15;55.40;;;9.80;99.90;;;;;;5113741;27;20023;-76
2022/10/23 01:26:15;;;;;;;102.78;56.70;;;9.80;99.90;;;;;;5113939;28;20020;-76
2022/10/23 01:28:49;;;;;;;100.78;53.75;;;9.80;99.90;;;;;;5113689;28;20019;-72
2022/10/23 01:31:22;;;;;;;101.53;53.90;;;9.80;99.90;;;;;;5112469;28;20020;-72
2022/10/23 01:34:02;;;;;;;107.25;54.53;;;9.80;99.90;;;;;;5113152;28;20084;-72
2022/10/23 01:36:30;;;;;;;101.10;53.70;;;9.80;99.90;;;;;;5112344;28;20476;-72
2022/10/23 01:39:06;;;;;;;117.57;57.53;;;9.80;99.90;;;;;;5115722;27;20131;-75
2022/10/23 01:41:43;;;;;;;106.00;55.60;;;9.70;99.90;;;;;;5113706;28;20024;-72
2022/10/23 01:44:25;;;;;;;110.20;55.63;;;9.80;99.90;;;;;;5113861;28;20103;-72
2022/10/23 01:46:52;;;;;;;115.80;56.50;;;9.70;99.90;;;;;;5114432;28;20023;-75
2022/10/23 01:49:20;;;;;;;96.30;49.00;;;9.70;99.90;;;;;;5114312;28;20080;-75
2022/10/23 01:51:53;;;;;;;95.15;51.00;;;9.70;99.90;;;;;;5113070;28;20019;-75
2022/10/23 01:54:23;;;;;;;106.38;55.05;;;9.70;99.90;;;;;;5114450;28;20051;-72
2022/10/23 01:56:50;;;;;;;104.72;49.47;;;9.70;99.90;;;;;;5114398;28;20023;-75
2022/10/23 01:59:22;;;;;;;104.40;52.75;;;9.70;99.90;;;;;;5114470;28;20358;-72
2022/10/23 02:01:51;;;;;;;106.20;51.42;;;9.70;99.90;;;;;;5114284;28;20027;-72
2022/10/23 02:04:24;;;;;;;107.45;53.50;;;9.70;99.90;;;;;;5118622;27;20011;-75
2022/10/23 02:06:49;;;;;;;114.45;53.85;;;9.60;99.90;;;;;;5133454;27;20019;-72
2022/10/23 02:09:15;;;;;;;99.85;51.28;;;9.60;99.90;;;;;;5134606;27;20027;-72
2022/10/23 02:12:11;;;;;;;94.28;49.15;;;9.60;99.90;;;;;;5134742;27;20056;-75
2022/10/23 02:15:11;;;;;;;106.63;49.15;;;9.60;99.90;;;;;;5107089;27;20028;-75
2022/10/23 02:17:46;;;;;;;113.60;53.53;;;9.60;99.90;;;;;;5114181;28;20028;-75
2022/10/23 02:20:23;;;;;;;104.60;51.13;;;9.60;99.90;;;;;;5113934;28;20461;-72
2022/10/23 02:23:03;;;;;;;102.72;51.08;;;9.60;99.90;;;;;;5112713;28;20515;-75
2022/10/23 02:25:48;;;;;;;98.82;48.55;;;9.60;99.90;;;;;;5118524;27;20015;-72
2022/10/23 02:28:18;;;;;;;99.85;50.03;;;9.50;99.90;;;;;;5132807;27;20023;-76
2022/10/23 02:30:46;;;;;;;97.78;48.15;;;9.60;99.90;;;;;;5133145;27;20448;-72
2022/10/23 02:33:13;;;;;;;80.57;45.00;;;9.60;99.90;;;;;;5134220;27;20019;-72
2022/10/23 02:35:39;;;;;;;98.78;51.20;;;9.60;99.90;;;;;;5117087;28;20036;-73
2022/10/23 02:38:28;;;;;;;90.57;47.30;;;9.60;99.90;;;;;;5125125;28;20067;-73
2022/10/23 02:40:58;;;;;;;93.63;48.78;;;9.60;99.90;;;;;;5133163;28;20065;-72
2022/10/23 02:43:30;;;;;;;101.47;50.88;;;9.60;99.90;;;;;;5134258;28;20027;-75
2022/10/23 02:46:05;;;;;;;;;;;9.60;99.90;;;;;;5136767;27;20365;-72
2022/10/23 02:48:41;;;;;;;100.13;48.47;;;9.60;99.90;;;;;;5118113;28;19951;-72
2022/10/23 02:51:41;;;;;;;102.10;50.15;;;9.60;99.90;;;;;;5117805;28;20041;-72
2022/10/23 02:54:42;;;;;;;108.05;50.83;;;9.60;99.90;;;;;;5117928;28;20023;-76
2022/10/23 02:57:15;;;;;;;113.50;50.08;;;9.60;99.90;;;;;;5072655;28;20542;-72
2022/10/23 02:59:49;;;;;;;101.90;50.80;;;9.60;99.90;;;;;;5097410;28;20023;-73
2022/10/23 03:02:24;;;;;;;114.18;49.70;;;9.60;99.90;;;;;;5097338;28;20354;-72
2022/10/23 03:04:52;;;;;;;105.10;49.88;;;9.50;99.90;;;;;;5109581;27;20015;-72
2022/10/23 03:07:19;;;;;;;100.40;50.40;;;9.60;99.90;;;;;;5138144;27;20361;-76
2022/10/23 03:09:45;;;;;;;98.60;47.72;;;9.60;99.90;;;;;;5136712;27;20035;-72
2022/10/23 03:12:11;;;;;;;112.47;51.05;;;9.60;99.90;;;;;;5120311;27;20103;-72
2022/10/23 03:14:36;;;;;;;93.68;48.47;;;9.60;99.90;;;;;;5117436;28;20070;-72
2022/10/23 03:17:03;;;;;;;105.10;51.20;;;9.60;99.90;;;;;;5117631;28;20024;-72
2022/10/23 03:19:28;;;;;;;102.47;47.80;;;9.60;99.90;;;;;;5120533;27;20019;-72
2022/10/23 03:21:54;;;;;;;90.72;43.67;;;9.50;99.90;;;;;;5138054;27;20499;-75
2022/10/23 03:24:19;;;;;;;105.50;49.05;;;9.60;99.90;;;;;;5137933;27;20100;-76
2022/10/23 03:26:45;;;;;;;101.32;49.03;;;9.50;99.90;;;;;;5123619;27;20027;-72
2022/10/23 03:29:10;;;;;;;98.20;47.17;;;9.50;99.90;;;;;;5126225;27;20442;-72
2022/10/23 03:31:36;;;;;;;99.10;46.80;;;9.50;99.90;;;;;;5136410;27;20391;-74
2022/10/23 03:34:02;;;;;;;108.38;49.30;;;9.40;99.90;;;;;;5137527;27;20027;-76
2022/10/23 03:36:27;;;;;;;96.35;45.70;;;9.50;99.90;;;;;;5137668;27;20027;-72
2022/10/23 03:38:53;;;;;;;88.65;44.65;;;9.40;99.90;;;;;;5133719;27;20412;-72
2022/10/23 03:41:18;;;;;;;101.22;47.67;;;9.40;99.90;;;;;;5137746;27;20042;-75
2022/10/23 03:43:44;;;;;;;96.93;48.95;;;9.40;99.90;;;;;;5136949;27;20100;-73
2022/10/23 03:46:11;;;;;;;92.80;45.15;;;9.40;99.90;;;;;;5134660;27;20023;-73
2022/10/23 03:48:38;;;;;;;107.00;47.63;;;9.40;99.90;;;;;;5116647;28;20070;-72
2022/10/23 03:51:07;;;;;;;103.32;48.38;;;9.40;99.90;;;;;;5115471;28;20428;-71
2022/10/23 03:53:32;;;;;;;93.78;46.78;;;9.50;99.90;;;;;;5115408;28;20067;-75
2022/10/23 03:55:58;;;;;;;95.47;46.45;;;9.50;99.90;;;;;;5115459;28;20053;-75
2022/10/23 03:58:24;;;;;;;89.30;44.85;;;9.50;99.90;;;;;;5114468;28;20118;-72
2022/10/23 04:00:49;;;;;;;93.22;48.40;;;9.40;99.90;;;;;;5116637;28;20030;-72
2022/10/23 04:03:15;;;;;;;93.47;47.28;;;9.40;99.90;;;;;;5115194;28;20513;-76
2022/10/23 04:05:41;;;;;;;98.97;48.65;;;9.40;99.90;;;;;;5116509;28;20380;-75
2022/10/23 04:08:07;;;;;;;96.30;44.42;;;9.40;99.90;;;;;;5125606;27;20019;-72
2022/10/23 04:10:33;;;;;;;94.07;44.95;;;9.40;99.90;;;;;;5136828;27;20039;-75
2022/10/23 04:12:58;;;;;;;100.70;47.58;;;9.40;99.90;;;;;;5137163;27;20011;-75
2022/10/23 04:15:24;;;;;;;86.30;45.78;;;9.40;99.90;;;;;;5116702;27;20020;-72
2022/10/23 04:17:50;;;;;;;89.60;44.83;;;9.50;99.90;;;;;;5116344;28;20058;-76
2022/10/23 04:20:15;;;;;;;96.85;44.70;;;9.50;99.90;;;;;;5114775;28;20428;-73
2022/10/23 04:22:41;;;;;;;92.82;45.70;;;9.40;99.90;;;;;;5121621;27;20027;-75
2022/10/23 04:25:07;;;;;;;90.72;44.03;;;9.40;99.90;;;;;;5136633;27;20464;-75
2022/10/23 04:27:33;;;;;;;98.05;45.10;;;9.40;99.90;;;;;;5136671;27;20019;-72
2022/10/23 04:29:59;;;;;;;99.20;45.03;;;9.40;99.90;;;;;;5136500;27;20027;-72
2022/10/23 04:32:25;;;;;;;91.68;42.97;;;9.40;99.90;;;;;;5136431;27;20019;-75
2022/10/23 04:34:50;;;;;;;99.10;45.83;;;9.40;99.90;;;;;;5136419;27;20083;-75
2022/10/23 04:37:16;;;;;;;102.82;44.95;;;9.40;99.90;;;;;;5131171;27;20015;-76
2022/10/23 04:39:41;;;;;;;99.88;47.58;;;9.40;99.90;;;;;;5114295;28;20058;-73
2022/10/23 04:42:07;;;;;;;98.75;42.95;;;9.40;99.90;;;;;;5131904;27;20492;-75
2022/10/23 04:44:33;;;;;;;103.32;45.40;;;9.40;99.90;;;;;;5136236;27;20388;-75
2022/10/23 04:46:58;;;;;;;102.65;45.38;;;9.40;99.90;;;;;;5126082;27;20020;-73
2022/10/23 04:49:24;;;;;;;108.93;46.03;;;9.40;99.90;;;;;;5114251;28;20046;-76
2022/10/23 04:51:49;;;;;;;98.47;44.72;;;9.40;99.90;;;;;;5115700;28;20022;-77
2022/10/23 04:54:15;;;;;;;97.05;44.47;;;9.40;99.90;;;;;;5115419;28;20092;-75
2022/10/23 04:56:41;;;;;;;89.22;43.78;;;9.40;99.90;;;;;;5114499;28;20076;-74
2022/10/23 04:59:06;;;;;;;93.35;44.20;;;9.40;99.90;;;;;;5115515;28;20030;-73
2022/10/23 05:01:32;;;;;;;97.30;45.30;;;9.40;99.90;;;;;;5115374;28;20102;-73
2022/10/23 05:03:57;;;;;;;99.88;43.95;;;9.40;99.90;;;;;;5115450;28;20024;-73
2022/10/23 05:06:23;;;;;;;100.15;45.80;;;9.50;99.90;;;;;;5115342;28;20088;-74
2022/10/23 05:08:48;;;;;;;91.57;44.42;;;9.50;99.90;;;;;;5114174;28;20039;-74
2022/10/23 05:11:14;;;;;;;99.00;43.95;;;9.50;99.90;;;;;;5115236;28;20051;-75
2022/10/23 05:13:40;;;;;;;99.75;43.25;;;9.50;99.90;;;;;;5115255;28;20076;-73
2022/10/23 05:16:05;;;;;;;95.45;44.83;;;9.50;99.90;;;;;;5120839;27;20031;-76
2022/10/23 05:18:36;;;;;;;103.57;46.33;;;9.50;99.90;;;;;;5134268;27;20026;-74
2022/10/23 05:21:11;;;;;;;93.68;43.42;;;9.50;99.90;;;;;;5135455;27;20022;-73
2022/10/23 05:23:39;;;;;;;90.18;44.33;;;9.50;99.90;;;;;;5135697;27;20031;-73
2022/10/23 05:26:05;;;;;;;112.95;47.70;;;9.50;99.90;;;;;;5135496;27;20052;-73
2022/10/23 05:28:31;;;;;;;100.70;48.88;;;9.50;99.90;;;;;;5115992;27;20376;-75
2022/10/23 05:30:58;;;;;;;102.65;47.10;;;9.60;99.90;;;;;;5113484;28;20035;-75
2022/10/23 05:33:24;;;;;;;111.13;47.63;;;9.60;99.90;;;;;;5123235;27;20031;-73
2022/10/23 05:35:50;;;;;;;106.07;47.38;;;9.50;99.90;;;;;;5133931;27;20115;-73
2022/10/23 05:38:16;;;;;;;110.05;49.65;;;9.60;99.90;;;;;;5120653;27;20055;-73
2022/10/23 05:40:42;;;;;;;102.30;48.70;;;9.60;99.90;;;;;;5114619;28;20035;-73
2022/10/23 05:43:07;;;;;;;106.93;46.25;;;9.60;99.90;;;;;;5113495;28;20102;-74
2022/10/23 05:45:33;;;;;;;113.63;48.33;;;9.60;99.90;;;;;;5114573;28;20035;-75
2022/10/23 05:47:59;;;;;;;112.60;50.83;;;9.60;99.90;;;;;;5114582;28;20024;-73
2022/10/23 05:50:24;;;;;;;111.82;49.03;;;9.60;99.90;;;;;;5114375;28;20123;-75
2022/10/23 05:52:50;;;;;;;107.78;49.78;;;9.70;99.90;;;;;;5114592;28;20024;-74
2022/10/23 05:55:15;;;;;;;114.32;49.78;;;9.70;99.90;;;;;;5114348;28;20020;-74
2022/10/23 05:57:41;;;;;;;107.00;47.15;;;9.70;99.90;;;;;;5114797;27;20020;-73
2022/10/23 06:00:07;;;;;;;111.47;49.40;;;9.70;99.90;;;;;;5134553;27;20422;-75
2022/10/23 06:02:33;;;;;;;98.35;46.17;;;9.70;99.90;;;;;;5133668;27;20027;-75
2022/10/23 06:04:59;;;;;;;108.47;47.92;;;9.70;99.90;;;;;;5121313;27;20088;-73
2022/10/23 06:07:26;;;;;;;107.65;47.90;;;9.80;99.90;;;;;;5114188;28;20376;-73
2022/10/23 06:09:53;;;;;;;103.85;47.80;;;9.80;99.90;;;;;;5118099;27;20448;-75
2022/10/23 06:12:19;;;;;;;108.03;48.92;;;9.80;99.90;;;;;;5134730;27;20487;-76
2022/10/23 06:14:45;;;;;;;104.97;49.17;;;9.80;99.90;;;;;;5134636;27;20030;-74
2022/10/23 06:17:11;;;;;;;101.03;46.20;;;9.80;99.90;;;;;;5119090;27;20020;-77
2022/10/23 06:19:36;;;;;;;111.43;49.38;;;9.80;99.90;;;;;;5112101;28;20069;-67
2022/10/23 06:22:03;;;;;;;106.15;46.03;;;9.90;99.90;;;;;;5117627;27;20365;-75
2022/10/23 06:24:29;;;;;;;98.05;44.65;;;9.90;99.90;;;;;;5134234;27;20106;-75
2022/10/23 06:26:55;;;;;;;106.80;45.95;;;9.90;99.90;;;;;;5132659;27;20159;-77
2022/10/23 06:29:20;;;;;;;102.65;46.17;;;10.00;99.90;;;;;;5116447;27;20027;-76
2022/10/23 06:31:46;;;;;;;109.55;47.58;;;10.00;99.90;;;;;;5112646;28;20501;-80
2022/10/23 06:34:12;;;;;;;103.22;44.90;;;10.00;99.90;;;;;;5119949;28;20380;-79
2022/10/23 06:36:38;;;;;;;107.38;46.90;;;10.00;99.90;;;;;;5131996;28;20503;-81
2022/10/23 06:39:04;;;;;;;98.80;46.58;;;10.00;99.90;;;;;;5113381;28;20511;-80
2022/10/23 06:41:30;;;;;;;88.93;40.78;;;10.00;99.90;;;;;;5113054;28;20050;-80
2022/10/23 06:43:56;;;;;;;97.75;46.13;;;10.00;99.90;;;;;;5134084;28;20421;-80
2022/10/23 06:46:22;;;;;;;101.88;44.83;;;10.00;99.90;;;;;;5124576;28;20027;-80
2022/10/23 06:48:47;;;;;;;86.07;44.25;;;10.10;99.90;;;;;;5112166;28;20026;-80
2022/10/23 06:51:15;;;;;;;101.32;48.20;;;10.10;99.90;;;;;;5112100;28;20028;-79
2022/10/23 06:53:42;;;;;;;97.57;50.72;;;10.10;99.90;;;;;;5112095;28;20028;-80
2022/10/23 06:56:08;;;;;;;91.72;46.03;;;10.10;99.90;;;;;;5111928;28;20430;-80
2022/10/23 06:58:36;;;;;;;94.65;47.70;;;10.20;99.90;;;;;;5123187;28;20379;-80
2022/10/23 07:01:04;;;;;;;93.25;45.10;;;10.20;99.90;;;;;;5132763;28;20027;-80
2022/10/23 07:03:30;;;;;;;86.65;43.05;;;10.20;99.90;;;;;;5131809;28;20024;-80
2022/10/23 07:05:59;;;;;;;85.35;43.40;;;10.20;99.90;;;;;;5113508;28;20023;-80
2022/10/23 07:08:25;;;;;;;89.80;45.65;;;10.20;99.90;;;;;;5113517;28;20015;-80
2022/10/23 07:10:51;;;;;;;89.40;46.05;;;10.20;99.90;;;;;;5124149;28;20068;-80
2022/10/23 07:13:16;;;;;;;95.43;45.55;;;10.20;99.90;;;;;;5132368;28;20384;-80
2022/10/23 07:15:42;;;;;;;79.38;40.72;;;10.20;99.90;;;;;;5131027;28;20072;-81
2022/10/23 07:18:13;;;;;;;87.50;44.05;;;10.20;99.90;;;;;;5111860;28;20472;-81
2022/10/23 07:20:39;;;;;;;79.07;39.65;;;10.20;99.90;;;;;;5112267;28;20020;-79
2022/10/23 07:23:05;;;;;;;85.47;42.75;;;10.30;99.90;;;;;;5127461;28;20015;-80
2022/10/23 07:25:32;;;;;;;80.47;42.97;;;10.40;99.90;;;;;;5132634;28;20524;-79
2022/10/23 07:27:57;;;;;;;81.70;42.00;;;10.30;99.90;;;;;;5127721;28;20114;-81
2022/10/23 07:30:23;;;;;;;71.88;37.38;;;10.40;99.90;;;;;;5111653;28;20118;-80
2022/10/23 07:32:49;;;;;;;72.55;39.33;;;10.40;99.90;;;;;;5113462;28;20548;-81
2022/10/23 07:35:15;;;;;;;69.60;38.10;;;10.50;99.90;;;;;;5116975;28;20020;-80
2022/10/23 07:37:41;;;;;;;75.28;38.80;;;10.50;99.90;;;;;;5125416;27;20021;-80
2022/10/23 07:40:08;;;;;;;67.22;37.20;;;10.50;99.90;;;;;;5137145;27;20543;-81
2022/10/23 07:42:34;;;;;;;69.90;38.40;;;10.60;99.90;;;;;;5136198;27;20063;-80
2022/10/23 07:44:59;;;;;;;73.22;40.13;;;10.60;99.90;;;;;;5135828;27;20472;-80
2022/10/23 07:47:25;;;;;;;70.43;38.70;;;10.70;99.90;;;;;;5121097;27;20026;-80
2022/10/23 07:49:51;;;;;;;63.60;32.92;;;10.70;99.90;;;;;;5120503;27;20054;-81
2022/10/23 07:52:16;;;;;;;68.82;37.50;;;10.80;99.90;;;;;;5137417;27;20487;-80
2022/10/23 07:54:42;;;;;;;71.13;34.78;;;10.90;99.90;;;;;;5136152;27;20023;-81
2022/10/23 07:57:10;;;;;;;65.00;35.20;;;10.90;99.90;;;;;;5121275;27;20012;-79
2022/10/23 07:59:36;;;;;;;68.50;35.80;;;11.00;99.90;;;;;;5116555;28;20450;-80
2022/10/23 08:02:02;;;;;;;66.00;33.05;;;11.10;99.90;;;;;;5121712;27;20064;-80
2022/10/23 08:04:28;;;;;;;61.75;34.17;;;11.20;99.90;;;;;;5135750;27;20043;-79
2022/10/23 08:06:55;;;;;;;63.42;33.55;;;11.30;99.90;;;;;;5137114;27;20046;-80
2022/10/23 08:09:21;;;;;;;60.88;33.65;;;11.30;99.90;;;;;;5120451;27;20096;-79
2022/10/23 08:11:46;;;;;;;57.95;31.55;;;11.30;99.90;;;;;;5115241;28;20035;-79
2022/10/23 08:14:12;;;;;;;54.92;30.40;;;11.30;99.90;;;;;;5121743;27;20027;-80
2022/10/23 08:16:38;;;;;;;52.88;28.92;;;11.40;99.90;;;;;;5135761;27;20019;-81
2022/10/23 08:19:05;;;;;;;53.58;29.40;;;11.40;99.90;;;;;;5135292;27;20102;-79
2022/10/23 08:21:31;;;;;;;55.10;30.55;;;11.40;99.90;;;;;;5117518;27;20031;-80
2022/10/23 08:23:58;;;;;;;52.63;30.70;;;11.50;99.90;;;;;;5115865;28;20032;-79
2022/10/23 08:26:25;;;;;;;46.63;27.27;;;11.50;99.90;;;;;;5123239;27;20027;-80
2022/10/23 08:28:52;;;;;;;53.30;28.42;;;11.60;99.90;;;;;;5135125;27;20480;-80
2022/10/23 08:31:19;;;;;;;54.53;30.75;;;11.70;99.90;;;;;;5136459;27;20038;-80
2022/10/23 08:33:45;;;;;;;49.22;30.05;;;11.90;99.90;;;;;;5115145;27;20051;-80
2022/10/23 08:36:22;;;;;;;51.45;29.10;;;12.10;99.90;;;;;;5114758;28;20042;-80
2022/10/23 08:38:49;;;;;;;49.47;27.42;;;12.10;99.90;;;;;;5122147;27;20071;-79
2022/10/23 08:41:42;;;;;;;48.00;27.40;;;12.20;99.90;;;;;;5114327;28;20032;-80
2022/10/23 08:44:32;;;;;;;45.97;29.52;;;12.20;99.90;;;;;;5114433;27;20036;-80
2022/10/23 08:46:59;;;;;;;48.08;29.17;;;12.20;99.90;;;;;;5124538;27;20052;-79
2022/10/23 08:49:27;;;;;;;44.13;26.70;;;12.20;99.90;;;;;;5114429;28;20544;-80
2022/10/23 08:51:56;;;;;;;45.10;25.25;;;12.30;99.90;;;;;;5093986;28;20032;-80
2022/10/23 08:54:45;;;;;;;44.78;27.25;;;12.40;99.90;;;;;;5093847;28;20085;-80
2022/10/23 08:57:15;;;;;;;40.42;24.70;;;12.40;99.90;;;;;;5123702;27;20019;-80
2022/10/23 08:59:57;;;;;;;42.05;25.80;;;12.40;99.90;;;;;;5135876;27;20031;-79
2022/10/23 09:02:34;;;;;;;49.05;29.25;;;12.50;99.90;;;;;;5127891;27;20047;-80
2022/10/23 09:05:00;;;;;;;44.38;25.42;;;12.40;99.90;;;;;;5115422;28;20095;-80
2022/10/23 09:07:26;;;;;;;50.67;28.83;;;12.30;99.90;;;;;;5114060;28;20555;-79
2022/10/23 09:10:31;;;;;;;48.50;29.63;;;12.40;99.90;;;;;;5113968;28;20106;-79
2022/10/23 09:13:05;;;;;;;48.75;28.55;;;12.40;99.90;;;;;;5115362;28;20080;-80
2022/10/23 09:15:39;;;;;;;47.90;27.05;;;12.50;99.90;;;;;;5132969;27;20019;-80
2022/10/23 09:18:16;;;;;;;49.83;28.00;;;12.50;99.90;;;;;;5135675;27;20020;-79
2022/10/23 09:20:44;;;;;;;75.68;50.13;;;12.50;99.90;;;;;;5123342;27;20043;-79
2022/10/23 09:23:16;;;;;;;80.82;44.53;;;12.50;99.90;;;;;;5114961;28;20044;-80
2022/10/23 09:25:45;;;;;;;57.78;33.38;;;12.50;99.90;;;;;;5116022;27;20058;-79
2022/10/23 09:28:41;;;;;;;124.90;71.97;;;12.50;99.90;;;;;;5135411;27;20160;-79
2022/10/23 09:31:09;;;;;;;78.47;44.67;;;12.50;99.90;;;;;;5125799;27;20031;-80
2022/10/23 09:33:36;;;;;;;49.72;32.45;;;12.60;99.90;;;;;;5131792;27;20468;-79
2022/10/23 09:36:06;;;;;;;67.88;38.67;;;12.70;99.90;;;;;;5135371;27;20361;-79
2022/10/23 09:38:36;;;;;;;50.83;30.23;;;12.80;99.90;;;;;;5126413;27;20115;-79
2022/10/23 09:41:32;;;;;;;53.95;29.95;;;12.80;99.90;;;;;;5135093;27;20037;-80
2022/10/23 09:44:18;;;;;;;53.60;31.90;;;12.90;99.90;;;;;;5120625;27;20120;-80
2022/10/23 09:47:12;;;;;;;53.50;28.98;;;13.10;99.90;;;;;;5106980;28;20039;-79
2022/10/23 09:49:45;;;;;;;55.05;29.73;;;13.10;99.90;;;;;;5115080;27;20031;-79
2022/10/23 09:52:11;;;;;;;46.33;28.30;;;13.10;99.90;;;;;;5132156;27;20468;-80
2022/10/23 09:54:47;;;;;;;48.08;27.55;;;13.30;99.90;;;;;;5131256;27;20030;-80
2022/10/23 09:57:38;;;;;;;43.78;26.80;;;13.30;99.90;;;;;;5131488;27;20023;-80
2022/10/23 10:00:10;;;;;;;42.10;26.52;;;13.40;99.90;;;;;;5128946;27;20127;-79
2022/10/23 10:02:36;;;;;;;50.42;26.35;;;13.40;99.90;;;;;;5133444;27;20388;-79
2022/10/23 10:05:37;;;;;;;69.50;39.08;;;13.40;99.90;;;;;;5125413;27;20025;-79
2022/10/23 10:08:06;;;;;;;44.15;28.80;;;13.50;99.90;;;;;;5090763;27;20038;-79
2022/10/23 10:10:38;;;;;;;43.65;27.42;;;13.50;99.90;;;;;;5132644;27;20023;-79
2022/10/23 10:13:29;;;;;;;55.15;28.02;;;13.60;99.90;;;;;;5127891;27;20020;-79
2022/10/23 10:16:16;;;;;;;49.20;25.88;;;13.70;99.90;;;;;;5124156;27;20016;-79
2022/10/23 10:19:10;;;;;;;39.25;22.48;;;13.70;99.90;;;;;;5107355;28;20023;-79
2022/10/23 10:21:51;;;;;;;37.67;24.50;;;13.80;99.90;;;;;;5117217;27;20361;-79
2022/10/23 10:24:55;;;;;;;32.92;23.38;;;14.00;99.90;;;;;;5130989;27;20430;-80
2022/10/23 10:27:43;;;;;;;33.08;20.48;;;14.00;99.90;;;;;;5134480;27;20068;-80
2022/10/23 10:30:13;;;;;;;31.77;20.75;;;14.20;99.90;;;;;;5117525;27;20019;-79
2022/10/23 10:33:07;;;;;;;38.90;22.17;;;14.20;99.90;;;;;;5115954;28;20023;-79
2022/10/23 10:35:42;;;;;;;36.95;20.83;;;14.20;99.90;;;;;;5110112;28;20031;-80
2022/10/23 10:38:25;;;;;;;31.95;20.08;;;14.30;99.90;;;;;;5110023;28;20679;-79
2022/10/23 10:41:28;;;;;;;33.53;20.52;;;14.40;99.90;;;;;;5117311;28;20035;-80
2022/10/23 10:44:09;;;;;;;;;;;14.30;99.90;;;;;;5086244;28;20035;-80
2022/10/23 10:46:46;;;;;;;24.52;16.48;;;14.40;99.90;;;;;;5102860;28;19903;-80
2022/10/23 10:49:37;;;;;;;29.30;16.90;;;14.40;99.90;;;;;;5132272;28;20023;-79
2022/10/23 10:52:17;;;;;;;30.05;17.23;;;14.60;99.90;;;;;;5133809;28;20025;-80
2022/10/23 10:54:58;;;;;;;47.58;23.95;;;14.40;99.90;;;;;;5116164;28;20537;-80
2022/10/23 10:57:29;;;;;;;22.63;13.95;;;14.40;99.90;;;;;;5117263;28;20034;-80
2022/10/23 11:00:04;;;;;;;22.40;13.88;;;14.30;99.90;;;;;;5132164;28;20037;-80
2022/10/23 11:02:52;;;;;;;21.52;13.65;;;14.40;99.90;;;;;;5134046;27;20094;-80
2022/10/23 11:05:32;;;;;;;20.60;12.95;;;14.50;99.90;;;;;;5126450;28;20026;-79
2022/10/23 11:07:59;;;;;;;15.40;11.27;;;14.60;99.90;;;;;;5121288;27;20034;-80
2022/10/23 11:10:26;;;;;;;18.60;13.13;;;14.70;99.90;;;;;;5134565;27;20027;-80
2022/10/23 11:12:52;;;;;;;19.27;13.85;;;14.80;99.90;;;;;;5110234;28;20388;-80
2022/10/23 11:15:32;;;;;;;24.45;14.50;;;14.90;99.90;;;;;;5115052;28;20012;-79
2022/10/23 11:18:02;;;;;;;22.58;14.93;;;14.90;99.90;;;;;;5126847;27;20027;-79
2022/10/23 11:20:54;;;;;;;21.77;13.98;;;15.00;99.90;;;;;;5135841;27;20031;-80
2022/10/23 11:23:26;;;;;;;28.00;17.03;;;15.10;99.90;;;;;;5128318;27;20024;-79
2022/10/23 11:26:27;;;;;;;21.00;13.87;;;15.20;99.90;;;;;;5115630;28;20312;-79
2022/10/23 11:29:20;;;;;;;20.10;13.32;;;15.30;99.90;;;;;;5120155;27;20348;-79
2022/10/23 11:32:13;;;;;;;18.13;12.48;;;15.30;99.90;;;;;;5136718;27;20031;-79
2022/10/23 11:34:44;;;;;;;17.48;10.02;;;15.40;99.90;;;;;;5133895;27;20019;-79
2022/10/23 11:37:16;;;;;;;16.30;10.43;;;15.30;99.90;;;;;;5122112;27;20423;-79
2022/10/23 11:40:13;;;;;;;14.60;10.10;;;15.40;99.90;;;;;;5135784;27;20550;-79
2022/10/23 11:42:39;;;;;;;15.85;10.38;;;15.50;99.90;;;;;;5115210;27;20511;-79
2022/10/23 11:45:37;;;;;;;11.32;9.52;;;15.60;99.90;;;;;;5113974;28;20119;-79
2022/10/23 11:48:18;;;;;;;15.98;10.45;;;15.80;99.90;;;;;;5123980;27;20102;-79
2022/10/23 11:50:43;;;;;;;12.27;9.52;;;16.00;99.90;;;;;;5136225;27;20365;-79
2022/10/23 11:53:26;;;;;;;18.30;11.32;;;16.00;99.90;;;;;;5129941;27;20077;-80
2022/10/23 11:56:01;;;;;;;13.98;9.88;;;15.90;99.90;;;;;;5116971;28;20431;-79
2022/10/23 11:58:47;;;;;;;17.50;10.93;;;15.80;99.90;;;;;;5116869;28;20427;-80
2022/10/23 12:01:40;;;;;;;16.80;9.85;;;15.80;99.90;;;;;;5136930;27;20080;-79
2022/10/23 12:04:11;;;;;;;14.15;10.45;;;15.90;99.90;;;;;;5135604;27;20012;-79
2022/10/23 12:06:43;;;;;;;11.90;9.48;;;16.00;99.90;;;;;;5118137;27;20020;-80
2022/10/23 12:09:29;;;;;;;14.52;10.45;;;15.90;99.90;;;;;;5116365;28;20031;-79
2022/10/23 12:12:07;;;;;;;11.50;8.70;;;15.90;99.90;;;;;;5127482;27;20057;-79
2022/10/23 12:14:50;;;;;;;15.13;10.40;;;15.80;99.90;;;;;;5136735;27;20069;-79
2022/10/23 12:17:22;;;;;;;15.70;10.32;;;15.70;99.90;;;;;;5129475;27;20395;-80
2022/10/23 12:20:01;;;;;;;21.27;12.27;;;15.60;99.90;;;;;;5115824;28;20063;-80
2022/10/23 12:22:43;;;;;;;14.05;10.68;;;15.50;99.90;;;;;;5116121;28;20019;-80
2022/10/23 12:25:14;;;;;;;;;;;15.30;99.90;;;;;;5136907;27;20376;-79
2022/10/23 12:27:51;;;;;;;14.57;9.73;;;15.30;99.90;;;;;;5135054;27;19903;-79
2022/10/23 12:30:23;;;;;;;14.88;9.93;;;15.40;99.90;;;;;;5120377;27;20020;-79
2022/10/23 12:32:53;;;;;;;11.60;9.15;;;15.50;99.90;;;;;;5115672;27;20024;-79
2022/10/23 12:35:27;;;;;;;15.30;10.90;;;15.50;99.90;;;;;;5121614;27;20396;-80
2022/10/23 12:38:11;;;;;;;13.05;10.18;;;15.60;99.90;;;;;;5122885;27;20031;-79
2022/10/23 12:40:37;;;;;;;13.65;10.13;;;15.60;99.90;;;;;;5117386;27;20035;-79
2022/10/23 12:43:19;;;;;;;14.15;9.65;;;15.70;99.90;;;;;;5136786;27;20377;-79
2022/10/23 12:45:44;;;;;;;12.73;9.52;;;15.80;99.90;;;;;;5132916;27;20023;-79
2022/10/23 12:48:21;;;;;;;13.98;8.98;;;15.80;99.90;;;;;;5130687;27;20025;-79
2022/10/23 12:50:49;;;;;;;15.20;9.48;;;15.70;99.90;;;;;;5134955;27;20068;-79
2022/10/23 12:53:17;;;;;;;12.48;9.52;;;15.70;99.90;;;;;;5127868;27;20374;-79